Cap Romuald — SVGN — position and weather

sailwx.info

Track history (hours):
 
Tides and Currents Weather Stations Pressure Air Temp Water Temp Dewpoint Dewpoint Depression Visibility Wind Speed Wind Dir Waves Ship Positions

Cap Romuald

Last reported at 2018-Jan-21 16:17 UTC. Time now 2018-Jan-21 22:49 UTC.
Position N 36°09' W 000°05'.

Length 274 m; draft 9.6 m.

Type: Tanker. MMSI: 239574000.

Date/timePositionNaut miles runAvg speedWind from/ knotsBaromVisibWave heightAir tempDewpointWater temp
2018-Jan-21 16:17N 36°09' W 000°05'5 0.4
2018-Jan-21 03:08N 36°13' W 000°04'1 3.3
2018-Jan-21 02:43N 36°12' W 000°04'2 3.0
2018-Jan-21 02:04N 36°10' W 000°05'1 3.2
2018-Jan-21 01:45N 36°09' W 000°06'1 3.1
2018-Jan-21 01:19N 36°08' W 000°07'1 3.1
2018-Jan-21 01:01N 36°08' W 000°07'5 1.7
2018-Jan-20 22:02N 36°07' W 000°13'0 2.3
2018-Jan-20 21:50N 36°07' W 000°14'4 2.3
2018-Jan-20 19:56N 36°03' W 000°17'5 5.0
2018-Jan-20 18:56N 36°07' W 000°13'3 6.0
2018-Jan-20 18:30N 36°10' W 000°11'2 3.0
2018-Jan-20 18:00N 36°11' W 000°10'1 2.5
2018-Jan-20 17:31N 36°09' W 000°11'235 5.5
2018-Jan-18 22:56N 36°02' W 005°02'3 7.2
2018-Jan-18 22:30N 36°02' W 005°05'3 6.5
2018-Jan-18 22:01N 36°02' W 005°09'3 5.9
2018-Jan-18 21:31N 36°02' W 005°13'3 6.3
2018-Jan-18 21:01N 36°03' W 005°16'5 9.5
2018-Jan-18 20:30N 36°05' W 005°22'3 5.1
2018-Jan-18 19:58N 36°08' W 005°23'0 0.2
2018-Jan-18 19:28N 36°08' W 005°23'0 0.0
2018-Jan-18 18:58N 36°08' W 005°23'0 0.1
2018-Jan-18 18:28N 36°08' W 005°23'0 0.1
2018-Jan-18 17:58N 36°08' W 005°23'0 0.1
2018-Jan-18 17:25N 36°08' W 005°23'0 0.1
2018-Jan-18 16:58N 36°08' W 005°23'0 0.1
2018-Jan-18 16:28N 36°08' W 005°23'0 0.0
2018-Jan-18 15:52N 36°08' W 005°23'0 0.2
2018-Jan-18 15:28N 36°08' W 005°23'0 0.0
2018-Jan-18 14:43N 36°08' W 005°23'0 0.1
2018-Jan-18 14:19N 36°08' W 005°23'0 0.1
2018-Jan-18 13:43N 36°08' W 005°23'0 0.2
2018-Jan-18 13:19N 36°08' W 005°23'0 0.2
2018-Jan-18 12:58N 36°08' W 005°23'0 0.0
2018-Jan-18 12:28N 36°08' W 005°23'0 0.0
2018-Jan-18 11:22N 36°08' W 005°23'0 0.1
2018-Jan-18 10:49N 36°08' W 005°23'0 0.3
2018-Jan-18 10:25N 36°08' W 005°23'0 0.2
2018-Jan-18 10:00N 36°08' W 005°23'0 0.1
2018-Jan-18 09:30N 36°08' W 005°23'0 0.3
2018-Jan-18 09:00N 36°08' W 005°23'2 4.0
2018-Jan-18 08:30N 36°06' W 005°22'3 5.7
2018-Jan-18 08:00N 36°05' W 005°19'3 6.2
2018-Jan-18 07:30N 36°04' W 005°15'1 2.4
2018-Jan-18 07:00N 36°03' W 005°14'611.0
2018-Jan-18 06:30N 36°01' W 005°20'4 7.4
2018-Jan-18 06:00N 35°59' W 005°24'3 6.8
2018-Jan-18 05:30N 35°57' W 005°27'5 9.7
2018-Jan-18 05:00N 35°56' W 005°33'510.6
2018-Jan-18 04:30N 35°55' W 005°40'  
Track history (hours):
 
Tides and Currents Weather Stations Pressure Air Temp Water Temp Dewpoint Dewpoint Depression Visibility Wind Speed Wind Dir Waves Ship Positions

Cap Romuald

Last reported at 2018-Jan-21 16:17 UTC. Time now 2018-Jan-21 22:49 UTC.
Position N 36°09' W 000°05'.

Length 274 m; draft 9.6 m.

Type: Tanker. MMSI: 239574000.

Date/timePositionNaut miles runAvg speedWind from/ knotsBaromVisibWave heightAir tempDewpointWater temp
2018-Jan-21 16:17N 36°09' W 000°05'5 0.4
2018-Jan-21 03:08N 36°13' W 000°04'1 3.3
2018-Jan-21 02:43N 36°12' W 000°04'2 3.0
2018-Jan-21 02:04N 36°10' W 000°05'1 3.2
2018-Jan-21 01:45N 36°09' W 000°06'1 3.1
2018-Jan-21 01:19N 36°08' W 000°07'1 3.1
2018-Jan-21 01:01N 36°08' W 000°07'5 1.7
2018-Jan-20 22:02N 36°07' W 000°13'0 2.3
2018-Jan-20 21:50N 36°07' W 000°14'4 2.3
2018-Jan-20 19:56N 36°03' W 000°17'5 5.0
2018-Jan-20 18:56N 36°07' W 000°13'3 6.0
2018-Jan-20 18:30N 36°10' W 000°11'2 3.0
2018-Jan-20 18:00N 36°11' W 000°10'1 2.5
2018-Jan-20 17:31N 36°09' W 000°11'235 5.5
2018-Jan-18 22:56N 36°02' W 005°02'3 7.2
2018-Jan-18 22:30N 36°02' W 005°05'3 6.5
2018-Jan-18 22:01N 36°02' W 005°09'3 5.9
2018-Jan-18 21:31N 36°02' W 005°13'3 6.3
2018-Jan-18 21:01N 36°03' W 005°16'5 9.5
2018-Jan-18 20:30N 36°05' W 005°22'3 5.1
2018-Jan-18 19:58N 36°08' W 005°23'0 0.2
2018-Jan-18 19:28N 36°08' W 005°23'0 0.0
2018-Jan-18 18:58N 36°08' W 005°23'0 0.1
2018-Jan-18 18:28N 36°08' W 005°23'0 0.1
2018-Jan-18 17:58N 36°08' W 005°23'0 0.1
2018-Jan-18 17:25N 36°08' W 005°23'0 0.1
2018-Jan-18 16:58N 36°08' W 005°23'0 0.1
2018-Jan-18 16:28N 36°08' W 005°23'0 0.0
2018-Jan-18 15:52N 36°08' W 005°23'0 0.2
2018-Jan-18 15:28N 36°08' W 005°23'0 0.0
2018-Jan-18 14:43N 36°08' W 005°23'0 0.1
2018-Jan-18 14:19N 36°08' W 005°23'0 0.1
2018-Jan-18 13:43N 36°08' W 005°23'0 0.2
2018-Jan-18 13:19N 36°08' W 005°23'0 0.2
2018-Jan-18 12:58N 36°08' W 005°23'0 0.0
2018-Jan-18 12:28N 36°08' W 005°23'0 0.0
2018-Jan-18 11:22N 36°08' W 005°23'0 0.1
2018-Jan-18 10:49N 36°08' W 005°23'0 0.3
2018-Jan-18 10:25N 36°08' W 005°23'0 0.2
2018-Jan-18 10:00N 36°08' W 005°23'0 0.1
2018-Jan-18 09:30N 36°08' W 005°23'0 0.3
2018-Jan-18 09:00N 36°08' W 005°23'2 4.0
2018-Jan-18 08:30N 36°06' W 005°22'3 5.7
2018-Jan-18 08:00N 36°05' W 005°19'3 6.2
2018-Jan-18 07:30N 36°04' W 005°15'1 2.4
2018-Jan-18 07:00N 36°03' W 005°14'611.0
2018-Jan-18 06:30N 36°01' W 005°20'4 7.4
2018-Jan-18 06:00N 35°59' W 005°24'3 6.8
2018-Jan-18 05:30N 35°57' W 005°27'5 9.7
2018-Jan-18 05:00N 35°56' W 005°33'510.6
2018-Jan-18 04:30N 35°55' W 005°40'  

Dump ship's entire track history